createdAt,value
2022-10-01T00:00:39.351Z,60.98
2022-10-01T00:01:39.425Z,67.25
2022-10-01T00:02:39.393Z,73.05
2022-10-01T00:03:39.351Z,62.79
2022-10-01T00:04:39.344Z,60.25
2022-10-01T00:05:39.338Z,61.69
2022-10-01T00:06:39.452Z,68.89
2022-10-01T00:07:39.320Z,72.31
2022-10-01T00:08:39.287Z,65.52
2022-10-01T00:09:39.284Z,67.99
2022-10-01T00:10:39.276Z,70.55
2022-10-01T00:11:39.271Z,67.63
2022-10-01T00:12:39.276Z,65.72
2022-10-01T00:13:39.227Z,68.59
2022-10-01T00:14:39.317Z,61.14
2022-10-01T00:15:39.244Z,56.78
2022-10-01T00:16:39.267Z,67.32
2022-10-01T00:17:39.216Z,68.00
2022-10-01T00:18:39.237Z,57.73
2022-10-01T00:19:39.204Z,60.92
2022-10-01T00:20:39.177Z,66.65
2022-10-01T00:21:39.156Z,64.47
2022-10-01T00:22:39.176Z,60.87
2022-10-01T00:23:39.149Z,66.39
2022-10-01T00:24:39.120Z,61.66
2022-10-01T00:25:39.121Z,65.17
2022-10-01T00:26:39.137Z,66.10
2022-10-01T00:27:39.096Z,61.63
2022-10-01T00:28:39.128Z,62.81
2022-10-01T00:29:39.066Z,62.24
2022-10-01T00:30:40.487Z,59.29
2022-10-01T00:31:40.184Z,61.56
2022-10-01T00:32:39.372Z,60.64
2022-10-01T00:33:39.844Z,64.61
2022-10-01T00:34:39.030Z,66.49
2022-10-01T00:35:39.013Z,62.32
2022-10-01T00:36:39.001Z,69.77
2022-10-01T00:37:38.990Z,65.45
2022-10-01T00:38:39.029Z,58.43
2022-10-01T00:39:38.969Z,54.40
2022-10-01T00:40:38.960Z,60.16
2022-10-01T00:41:38.962Z,59.43
2022-10-01T00:42:38.955Z,60.63
2022-10-01T00:43:38.956Z,55.33
2022-10-01T00:44:38.938Z,66.17
2022-10-01T00:45:38.969Z,65.52
2022-10-01T00:46:38.909Z,67.26
2022-10-01T00:47:38.905Z,69.81
2022-10-01T00:48:38.877Z,62.60
2022-10-01T00:49:38.882Z,66.14
2022-10-01T00:50:38.994Z,52.37
2022-10-01T00:51:38.901Z,66.83
2022-10-01T00:52:38.797Z,66.55
2022-10-01T00:53:38.825Z,65.86
2022-10-01T00:54:38.812Z,64.89
2022-10-01T00:55:38.803Z,68.42
2022-10-01T00:56:38.790Z,61.65
2022-10-01T00:57:38.785Z,61.59
2022-10-01T00:58:38.746Z,70.74
2022-10-01T00:59:38.774Z,63.58
2022-10-01T01:00:38.766Z,65.24
2022-10-01T01:01:38.811Z,68.57
2022-10-01T01:02:38.840Z,68.86
2022-10-01T01:03:38.718Z,70.36
2022-10-01T01:04:38.726Z,63.19
2022-10-01T01:05:54.917Z,65.62
2022-10-01T01:06:38.960Z,66.93
2022-10-01T01:07:40.386Z,62.12
2022-10-01T01:08:40.059Z,68.14
2022-10-01T01:09:38.890Z,69.61
2022-10-01T01:10:39.110Z,65.69
2022-10-01T01:11:38.643Z,66.13
2022-10-01T01:12:38.641Z,64.95
2022-10-01T01:13:38.661Z,68.99
2022-10-01T01:14:38.623Z,69.20
2022-10-01T01:15:38.661Z,67.84
2022-10-01T01:16:38.578Z,63.26
2022-10-01T01:17:48.165Z,60.15
2022-10-01T01:18:38.585Z,65.93
2022-10-01T01:19:38.560Z,68.96
2022-10-01T01:20:38.612Z,74.90
2022-10-01T01:21:38.587Z,59.95
2022-10-01T01:22:38.527Z,61.10
2022-10-01T01:23:38.510Z,61.22
2022-10-01T01:24:38.512Z,48.20
2022-10-01T01:25:38.535Z,64.53
2022-10-01T01:26:38.496Z,64.34
2022-10-01T01:27:38.488Z,66.19
2022-10-01T01:28:38.493Z,63.30
2022-10-01T01:29:38.480Z,67.73
2022-10-01T01:30:38.447Z,70.31
2022-10-01T01:31:38.650Z,72.13
2022-10-01T01:32:38.445Z,62.02
2022-10-01T01:33:38.504Z,59.51
2022-10-01T01:34:38.393Z,59.58
2022-10-01T01:35:38.368Z,71.21
2022-10-01T01:36:38.383Z,69.33
2022-10-01T01:37:38.563Z,74.02
2022-10-01T01:38:38.339Z,63.99
2022-10-01T01:39:38.513Z,69.03
2022-10-01T01:40:38.312Z,67.55
2022-10-01T01:41:38.337Z,66.23
2022-10-01T01:42:38.312Z,69.51
2022-10-01T01:43:38.288Z,55.36
2022-10-01T01:44:38.280Z,54.85
2022-10-01T01:45:38.351Z,62.07
2022-10-01T01:46:38.236Z,67.82
2022-10-01T01:47:38.261Z,66.01
2022-10-01T01:48:38.217Z,67.86
2022-10-01T01:49:38.204Z,62.03
2022-10-01T01:50:38.240Z,54.52
2022-10-01T01:51:38.293Z,66.96
2022-10-01T01:52:38.168Z,55.63
2022-10-01T01:53:38.189Z,64.64
2022-10-01T01:54:38.198Z,60.80
2022-10-01T01:55:38.204Z,63.58
2022-10-01T01:56:38.289Z,66.06
2022-10-01T01:57:39.072Z,57.34
2022-10-01T01:58:38.166Z,57.82
2022-10-01T01:59:38.150Z,65.31
2022-10-01T02:00:38.105Z,68.91
2022-10-01T02:01:38.529Z,74.85
2022-10-01T02:02:38.224Z,66.19
2022-10-01T02:03:39.275Z,65.50
2022-10-01T02:04:38.060Z,63.43
2022-10-01T02:05:38.061Z,70.48
2022-10-01T02:06:38.043Z,64.66
2022-10-01T02:07:38.097Z,59.36
2022-10-01T02:08:38.981Z,67.34
2022-10-01T02:09:38.173Z,68.83
2022-10-01T02:10:37.978Z,57.98
2022-10-01T02:11:37.973Z,59.34
2022-10-01T02:12:38.022Z,62.78
2022-10-01T02:13:37.938Z,69.50
2022-10-01T02:14:37.953Z,67.38
2022-10-01T02:15:37.976Z,63.87
2022-10-01T02:16:37.918Z,66.93
2022-10-01T02:17:37.895Z,69.30
2022-10-01T02:18:37.929Z,67.54
2022-10-01T02:19:37.897Z,59.98
2022-10-01T02:20:37.867Z,68.18
2022-10-01T02:21:37.894Z,69.60
2022-10-01T02:22:37.859Z,58.69
2022-10-01T02:23:37.894Z,63.26
2022-10-01T02:24:37.828Z,55.60
2022-10-01T02:25:37.886Z,64.02
2022-10-01T02:26:37.805Z,63.05
2022-10-01T02:27:37.855Z,64.46
2022-10-01T02:28:37.810Z,68.30
2022-10-01T02:29:37.798Z,63.67
2022-10-01T02:30:37.784Z,57.08
2022-10-01T02:31:38.154Z,67.39
2022-10-01T02:32:37.974Z,65.88
2022-10-01T02:33:38.262Z,60.47
2022-10-01T02:34:37.759Z,65.48
2022-10-01T02:35:37.718Z,61.98
2022-10-01T02:36:37.712Z,69.69
2022-10-01T02:37:37.695Z,66.70
2022-10-01T02:38:37.654Z,66.33
2022-10-01T02:39:37.662Z,67.26
2022-10-01T02:40:37.667Z,58.08
2022-10-01T02:41:37.666Z,67.84
2022-10-01T02:42:37.628Z,67.47
2022-10-01T02:43:42.596Z,60.84
2022-10-01T02:44:39.642Z,68.31
2022-10-01T02:45:37.655Z,71.57
2022-10-01T02:46:37.619Z,68.30
2022-10-01T02:47:37.636Z,68.10
2022-10-01T02:48:37.555Z,67.05
2022-10-01T02:49:37.568Z,57.10
2022-10-01T02:50:38.384Z,68.02
2022-10-01T02:51:37.539Z,69.75
2022-10-01T02:52:37.531Z,66.25
2022-10-01T02:53:37.507Z,64.79
2022-10-01T02:54:37.525Z,64.57
2022-10-01T02:55:37.523Z,72.38
2022-10-01T02:56:37.513Z,68.67
2022-10-01T02:57:37.493Z,64.57
2022-10-01T02:58:37.503Z,64.17
2022-10-01T02:59:37.475Z,63.43
2022-10-01T03:00:37.572Z,68.01
2022-10-01T03:01:37.804Z,64.24
2022-10-01T03:02:37.580Z,63.37
2022-10-01T03:03:37.480Z,66.88
2022-10-01T03:04:37.556Z,58.26
2022-10-01T03:05:37.395Z,64.73
2022-10-01T03:06:37.368Z,64.15
2022-10-01T03:07:37.348Z,64.24
2022-10-01T03:08:37.994Z,62.97
2022-10-01T03:09:37.444Z,68.94
2022-10-01T03:10:37.429Z,66.30
2022-10-01T03:11:37.356Z,64.73
2022-10-01T03:12:37.372Z,62.68
2022-10-01T03:13:37.340Z,65.88
2022-10-01T03:14:37.305Z,63.88
2022-10-01T03:15:37.901Z,70.33
2022-10-01T03:16:37.309Z,68.58
2022-10-01T03:17:37.282Z,70.47
2022-10-01T03:18:37.271Z,66.33
2022-10-01T03:19:37.374Z,70.42
2022-10-01T03:20:37.221Z,68.66
2022-10-01T03:21:37.200Z,72.85
2022-10-01T03:22:37.233Z,71.28
2022-10-01T03:23:37.205Z,68.41
2022-10-01T03:24:37.181Z,68.37
2022-10-01T03:25:37.161Z,73.52
2022-10-01T03:26:37.182Z,73.06
2022-10-01T03:27:37.154Z,71.77
2022-10-01T03:28:37.160Z,64.82
2022-10-01T03:29:37.169Z,73.21
2022-10-01T03:30:37.113Z,69.97
2022-10-01T03:31:37.710Z,73.35
2022-10-01T03:32:37.129Z,69.33
2022-10-01T03:33:37.086Z,70.02
2022-10-01T03:34:37.287Z,65.56
2022-10-01T03:35:37.081Z,70.24
2022-10-01T03:36:37.163Z,72.95
2022-10-01T03:37:37.049Z,67.68
2022-10-01T03:38:37.042Z,66.95
2022-10-01T03:39:37.056Z,74.32
2022-10-01T03:40:37.046Z,68.02
2022-10-01T03:41:37.159Z,70.45
2022-10-01T03:42:37.726Z,67.38
2022-10-01T03:43:36.973Z,68.08
2022-10-01T03:44:37.009Z,72.21
2022-10-01T03:45:37.079Z,72.13
2022-10-01T03:46:36.939Z,71.74
2022-10-01T03:47:36.925Z,67.09
2022-10-01T03:48:37.514Z,65.98
2022-10-01T03:49:36.989Z,62.80
2022-10-01T03:50:36.937Z,65.94
2022-10-01T03:51:37.083Z,71.90
2022-10-01T03:52:37.883Z,72.26
2022-10-01T03:53:37.374Z,61.64
2022-10-01T03:54:37.518Z,69.14
2022-10-01T03:55:36.890Z,68.77
2022-10-01T03:56:36.867Z,69.65
2022-10-01T03:57:36.786Z,71.58
2022-10-01T03:58:36.926Z,69.17
2022-10-01T03:59:36.811Z,70.89
2022-10-01T04:00:37.434Z,70.83
2022-10-01T04:01:37.290Z,68.59
2022-10-01T04:02:36.911Z,69.52
2022-10-01T04:03:36.814Z,71.85
2022-10-01T04:04:36.731Z,69.35
2022-10-01T04:05:36.767Z,69.87
2022-10-01T04:06:36.773Z,68.76
2022-10-01T04:07:36.690Z,69.74
2022-10-01T04:08:36.692Z,73.06
2022-10-01T04:09:36.806Z,72.57
2022-10-01T04:10:36.751Z,74.23
2022-10-01T04:11:36.990Z,67.88
2022-10-01T04:12:36.677Z,72.97
2022-10-01T04:13:37.898Z,73.90
2022-10-01T04:14:36.921Z,72.59
2022-10-01T04:15:36.607Z,71.59
2022-10-01T04:16:36.697Z,72.97
2022-10-01T04:17:36.621Z,70.96
2022-10-01T04:18:36.600Z,72.49
2022-10-01T04:19:36.557Z,69.23
2022-10-01T04:20:36.590Z,73.38
2022-10-01T04:21:36.928Z,71.83
2022-10-01T04:22:36.804Z,73.73
2022-10-01T04:23:36.733Z,73.28
2022-10-01T04:24:36.589Z,71.56
2022-10-01T04:25:36.524Z,73.69
2022-10-01T04:26:37.765Z,71.79
2022-10-01T04:27:36.677Z,74.49
2022-10-01T04:28:36.566Z,71.96
2022-10-01T04:29:40.072Z,74.34
2022-10-01T04:30:37.471Z,72.46
2022-10-01T04:31:37.826Z,71.72
2022-10-01T04:32:36.510Z,73.95
2022-10-01T04:33:36.452Z,70.29
2022-10-01T04:34:36.952Z,69.33
2022-10-01T04:35:37.370Z,75.73
2022-10-01T04:36:36.423Z,75.10
2022-10-01T04:37:36.424Z,74.14
2022-10-01T04:38:36.388Z,74.59
2022-10-01T04:39:36.365Z,74.83
2022-10-01T04:40:36.402Z,73.68
2022-10-01T04:41:36.939Z,72.56
2022-10-01T04:42:36.352Z,75.79
2022-10-01T04:43:36.329Z,72.08
2022-10-01T04:44:36.385Z,71.94
2022-10-01T04:45:36.345Z,72.64
2022-10-01T04:46:36.332Z,71.85
2022-10-01T04:47:37.698Z,70.69
2022-10-01T04:48:37.305Z,74.27
2022-10-01T04:49:36.325Z,74.14
2022-10-01T04:50:36.290Z,72.00
2022-10-01T04:51:36.533Z,68.74
2022-10-01T04:52:36.249Z,74.75
2022-10-01T04:53:36.828Z,73.97
2022-10-01T04:54:36.245Z,68.61
2022-10-01T04:55:36.209Z,71.96
2022-10-01T04:56:36.402Z,70.88
2022-10-01T04:57:36.189Z,68.66
2022-10-01T04:58:36.169Z,74.15
2022-10-01T04:59:36.275Z,69.86
2022-10-01T05:00:36.474Z,73.84
2022-10-01T05:01:36.643Z,75.33
2022-10-01T05:02:36.904Z,72.92
2022-10-01T05:03:37.106Z,72.76
2022-10-01T05:04:37.202Z,72.72
2022-10-01T05:05:36.202Z,71.57
2022-10-01T05:06:36.141Z,73.43
2022-10-01T05:07:36.089Z,70.57
2022-10-01T05:08:36.876Z,70.04
2022-10-01T05:09:36.077Z,69.82
2022-10-01T05:10:36.165Z,67.72
2022-10-01T05:11:36.465Z,71.81
2022-10-01T05:12:36.057Z,71.83
2022-10-01T05:13:37.139Z,69.95
2022-10-01T05:14:36.058Z,72.07
2022-10-01T05:15:35.994Z,71.01
2022-10-01T05:16:36.025Z,71.71
2022-10-01T05:17:35.974Z,71.09
2022-10-01T05:18:35.970Z,74.43
2022-10-01T05:19:35.911Z,74.46
2022-10-01T05:20:35.958Z,70.44
2022-10-01T05:21:36.088Z,72.02
2022-10-01T05:22:35.944Z,73.48
2022-10-01T05:23:35.921Z,71.50
2022-10-01T05:24:36.210Z,74.74
2022-10-01T05:25:35.850Z,74.95
2022-10-01T05:26:35.873Z,72.10
2022-10-01T05:27:35.911Z,75.60
2022-10-01T05:28:35.891Z,73.13
2022-10-01T05:29:35.900Z,72.46
2022-10-01T05:30:35.839Z,70.88
2022-10-01T05:31:36.413Z,74.71
2022-10-01T05:32:35.918Z,73.19
2022-10-01T05:33:35.825Z,73.74
2022-10-01T05:34:35.791Z,75.49
2022-10-01T05:35:36.454Z,71.38
2022-10-01T05:36:35.847Z,73.47
2022-10-01T05:37:35.726Z,72.06
2022-10-01T05:38:35.791Z,73.50
2022-10-01T05:39:35.723Z,74.18
2022-10-01T05:40:35.791Z,77.31
2022-10-01T05:41:36.010Z,74.72
2022-10-01T05:42:35.669Z,76.00
2022-10-01T05:43:35.651Z,73.95
2022-10-01T05:44:35.752Z,71.12
2022-10-01T05:45:35.961Z,74.46
2022-10-01T05:46:35.737Z,74.07
2022-10-01T05:47:37.367Z,71.94
2022-10-01T05:48:35.685Z,72.51
2022-10-01T05:49:35.580Z,76.48
2022-10-01T05:50:35.568Z,69.65
2022-10-01T05:51:35.961Z,73.09
2022-10-01T05:52:35.576Z,73.95
2022-10-01T05:53:35.721Z,75.06
2022-10-01T05:54:35.553Z,72.80
2022-10-01T05:55:35.516Z,74.23
2022-10-01T05:56:35.525Z,76.14
2022-10-01T05:57:35.556Z,74.54
2022-10-01T05:58:35.544Z,73.82
2022-10-01T05:59:35.740Z,75.70
2022-10-01T06:00:35.485Z,75.80
2022-10-01T06:01:35.847Z,73.92
2022-10-01T06:02:36.255Z,72.34
2022-10-01T06:03:36.321Z,73.10
2022-10-01T06:04:40.324Z,70.80
2022-10-01T06:05:37.455Z,71.52
2022-10-01T06:06:35.466Z,75.24
2022-10-01T06:07:43.288Z,76.58
2022-10-01T06:08:35.410Z,74.47
2022-10-01T06:09:35.324Z,74.69
2022-10-01T06:10:35.385Z,73.05
2022-10-01T06:11:35.774Z,76.52
2022-10-01T06:15:01.261Z,72.24
2022-10-01T06:15:05.321Z,0.00
2022-10-01T06:16:04.827Z,77.31
2022-10-01T06:17:08.852Z,75.12
2022-10-01T06:18:04.741Z,74.88
2022-10-01T06:19:04.854Z,74.71
2022-10-01T06:20:04.912Z,77.06
2022-10-01T06:21:04.702Z,75.99
2022-10-01T06:22:04.692Z,75.74
2022-10-01T06:23:04.738Z,77.33
2022-10-01T06:24:05.308Z,74.79
2022-10-01T06:25:04.747Z,73.87
2022-10-01T06:26:05.297Z,75.88
2022-10-01T06:27:04.716Z,74.52
2022-10-01T06:28:05.999Z,75.74
2022-10-01T06:29:04.954Z,75.35
2022-10-01T06:30:04.818Z,74.44
2022-10-01T06:31:04.733Z,74.25
2022-10-01T06:32:04.727Z,73.74
2022-10-01T06:33:05.055Z,76.83
2022-10-01T06:34:04.614Z,74.48
2022-10-01T06:35:04.580Z,74.72
2022-10-01T06:36:04.514Z,74.23
2022-10-01T06:37:04.506Z,74.73
2022-10-01T06:38:04.507Z,73.98
2022-10-01T06:39:04.502Z,73.63
2022-10-01T06:40:04.610Z,75.10
2022-10-01T06:41:04.472Z,76.40
2022-10-01T06:42:04.622Z,76.42
2022-10-01T06:43:04.446Z,76.62
2022-10-01T06:44:04.539Z,76.32
2022-10-01T06:45:05.130Z,76.78
2022-10-01T06:46:40.170Z,74.09
2022-10-01T06:47:04.422Z,78.52
2022-10-01T06:48:04.455Z,75.77
2022-10-01T06:49:05.738Z,77.52
2022-10-01T06:50:04.487Z,76.30
2022-10-01T06:51:04.404Z,76.79
2022-10-01T06:52:04.491Z,77.65
2022-10-01T06:53:04.366Z,76.45
2022-10-01T06:54:04.360Z,75.80
2022-10-01T06:55:04.457Z,75.20
2022-10-01T06:56:05.007Z,78.86
2022-10-01T06:57:04.399Z,75.34
2022-10-01T06:58:04.322Z,77.08
2022-10-01T06:59:04.319Z,79.52
2022-10-01T07:00:04.310Z,74.60
2022-10-01T07:01:05.328Z,78.52
2022-10-01T07:02:04.347Z,77.05
2022-10-01T07:03:04.326Z,75.58
2022-10-01T07:04:04.251Z,75.09
2022-10-01T07:05:04.951Z,77.20
2022-10-01T07:06:04.348Z,74.76
2022-10-01T07:07:04.189Z,77.18
2022-10-01T07:08:04.187Z,76.32
2022-10-01T07:09:04.227Z,76.20
2022-10-01T07:10:04.167Z,74.71
2022-10-01T07:11:05.808Z,77.95
2022-10-01T07:12:04.137Z,76.67
2022-10-01T07:13:04.107Z,76.06
2022-10-01T07:14:04.215Z,74.19
2022-10-01T07:15:04.116Z,75.98
2022-10-01T07:16:04.192Z,77.19
2022-10-01T07:17:04.068Z,77.27
2022-10-01T07:18:04.990Z,76.62
2022-10-01T07:19:04.060Z,78.85
2022-10-01T07:20:04.090Z,79.18
2022-10-01T07:21:04.196Z,77.37
2022-10-01T07:22:04.556Z,77.97
2022-10-01T07:23:04.076Z,77.60
2022-10-01T07:24:04.107Z,76.82
2022-10-01T07:25:04.852Z,76.75
2022-10-01T07:26:04.092Z,77.27
2022-10-01T07:27:07.400Z,77.17
2022-10-01T07:28:05.311Z,74.06
2022-10-01T07:29:04.877Z,78.02
2022-10-01T07:30:04.160Z,75.63
2022-10-01T07:31:04.061Z,75.52
2022-10-01T07:32:04.146Z,75.65
2022-10-01T07:33:03.960Z,76.17
2022-10-01T07:34:03.976Z,77.40
2022-10-01T07:35:04.452Z,78.06
2022-10-01T07:36:03.892Z,76.58
2022-10-01T07:37:03.989Z,77.41
2022-10-01T07:38:04.225Z,78.01
2022-10-01T07:39:03.890Z,76.85
2022-10-01T07:40:07.365Z,75.65
2022-10-01T07:41:05.906Z,76.25
2022-10-01T07:42:04.100Z,76.26
2022-10-01T07:43:03.861Z,80.38
2022-10-01T07:44:03.809Z,78.78
2022-10-01T07:45:04.022Z,75.03
2022-10-01T07:46:03.955Z,79.44
2022-10-01T07:47:04.865Z,77.12
2022-10-01T07:48:03.765Z,77.22
2022-10-01T07:49:04.305Z,76.66
2022-10-01T07:50:03.803Z,77.21
2022-10-01T07:51:03.841Z,77.59
2022-10-01T07:52:04.046Z,77.20
2022-10-01T07:53:04.517Z,77.21
2022-10-01T07:54:03.853Z,77.93
2022-10-01T07:55:03.714Z,77.53
2022-10-01T07:56:03.694Z,78.28
2022-10-01T07:57:03.650Z,78.16
2022-10-01T07:58:03.671Z,77.45
2022-10-01T07:59:04.575Z,77.37
2022-10-01T08:00:03.593Z,77.58
2022-10-01T08:01:03.713Z,76.88
2022-10-01T08:02:03.920Z,76.96
2022-10-01T08:03:03.609Z,78.45
2022-10-01T08:04:03.898Z,77.61
2022-10-01T08:05:03.658Z,75.38
2022-10-01T08:06:03.659Z,77.98
2022-10-01T08:07:03.545Z,78.55
2022-10-01T08:08:04.499Z,77.26
2022-10-01T08:09:03.860Z,78.52
2022-10-01T08:10:03.954Z,77.02
2022-10-01T08:11:03.815Z,77.17
2022-10-01T08:12:03.629Z,77.39
2022-10-01T08:13:03.518Z,78.21
2022-10-01T08:14:03.553Z,78.99
2022-10-01T08:15:03.470Z,74.24
2022-10-01T08:16:03.510Z,77.68
2022-10-01T08:17:03.495Z,78.10
2022-10-01T08:18:03.439Z,76.29
2022-10-01T08:19:03.596Z,77.67
2022-10-01T08:20:03.387Z,78.44
2022-10-01T08:21:03.479Z,77.37
2022-10-01T08:22:03.972Z,76.11
2022-10-01T08:23:03.394Z,75.34
2022-10-01T08:24:04.119Z,78.29
2022-10-01T08:25:03.378Z,76.96
2022-10-01T08:26:03.346Z,76.61
2022-10-01T08:27:03.594Z,77.14
2022-10-01T08:28:03.523Z,78.44
2022-10-01T08:29:03.362Z,78.76
2022-10-01T08:30:03.296Z,78.75
2022-10-01T08:31:03.276Z,78.30
2022-10-01T08:32:03.320Z,77.58
2022-10-01T08:33:03.291Z,77.00
2022-10-01T08:34:03.326Z,78.23
2022-10-01T08:35:04.588Z,77.52
2022-10-01T08:36:03.317Z,79.05
2022-10-01T08:37:03.244Z,77.83
2022-10-01T08:38:03.213Z,77.55
2022-10-01T08:39:03.304Z,78.92
2022-10-01T08:40:03.416Z,75.03
2022-10-01T08:41:03.279Z,75.29
2022-10-01T08:42:03.244Z,78.35
2022-10-01T08:43:03.181Z,76.70
2022-10-01T08:44:03.248Z,78.72
2022-10-01T08:45:03.263Z,78.47
2022-10-01T08:46:03.133Z,77.99
2022-10-01T08:47:03.384Z,78.88
2022-10-01T08:48:03.212Z,78.21
2022-10-01T08:49:03.087Z,78.74
2022-10-01T08:50:03.404Z,76.95
2022-10-01T08:51:03.110Z,79.47
2022-10-01T08:52:03.419Z,78.05
2022-10-01T08:53:03.059Z,78.71
2022-10-01T08:54:03.932Z,77.77
2022-10-01T08:55:03.052Z,77.96
2022-10-01T08:56:03.233Z,75.84
2022-10-01T08:57:03.036Z,77.68
2022-10-01T08:58:03.216Z,79.91
2022-10-01T08:59:02.980Z,77.08
2022-10-01T09:00:03.007Z,77.83
2022-10-01T09:01:03.082Z,77.45
2022-10-01T09:02:03.033Z,78.56
2022-10-01T09:03:03.004Z,77.71
2022-10-01T09:04:03.173Z,78.20
2022-10-01T09:05:03.073Z,74.96
2022-10-01T09:06:02.891Z,78.82
2022-10-01T09:07:02.916Z,77.55
2022-10-01T09:08:02.923Z,76.65
2022-10-01T09:09:03.393Z,78.21
2022-10-01T09:10:02.956Z,78.03
2022-10-01T09:11:02.932Z,78.29
2022-10-01T09:12:02.785Z,78.27
2022-10-01T09:13:02.825Z,76.96
2022-10-01T09:14:02.809Z,78.31
2022-10-01T09:15:03.162Z,78.17
2022-10-01T09:16:02.829Z,79.16
2022-10-01T09:17:02.970Z,79.43
2022-10-01T09:18:02.838Z,76.85
2022-10-01T09:19:02.752Z,78.01
2022-10-01T09:20:02.778Z,77.12
2022-10-01T09:21:02.750Z,77.48
2022-10-01T09:22:02.913Z,78.43
2022-10-01T09:23:02.738Z,78.72
2022-10-01T09:24:02.779Z,76.89
2022-10-01T09:25:02.729Z,77.56
2022-10-01T09:26:02.701Z,77.73
2022-10-01T09:27:02.778Z,76.46
2022-10-01T09:28:02.784Z,77.10
2022-10-01T09:29:03.585Z,78.01
2022-10-01T09:30:02.636Z,77.09
2022-10-01T09:31:02.655Z,78.51
2022-10-01T09:32:02.937Z,78.97
2022-10-01T09:33:02.687Z,76.06
2022-10-01T09:34:02.832Z,78.80
2022-10-01T09:35:04.649Z,78.20
2022-10-01T09:36:03.570Z,77.38
2022-10-01T09:37:02.686Z,76.03
2022-10-01T09:38:02.700Z,78.11
2022-10-01T09:39:03.937Z,78.67
2022-10-01T09:40:02.628Z,77.37
2022-10-01T09:41:02.519Z,76.77
2022-10-01T09:42:02.523Z,76.26
2022-10-01T09:43:02.514Z,77.98
2022-10-01T09:44:02.570Z,77.90
2022-10-01T09:45:02.635Z,75.67
2022-10-01T09:46:02.577Z,78.45
2022-10-01T09:47:03.099Z,76.90
2022-10-01T09:48:03.630Z,77.24
2022-10-01T09:49:02.599Z,79.72
2022-10-01T09:50:02.587Z,78.72
2022-10-01T09:51:02.457Z,75.82
2022-10-01T09:52:02.442Z,78.93
2022-10-01T09:53:03.016Z,78.37
2022-10-01T09:54:02.519Z,78.74
2022-10-01T09:55:02.727Z,76.50
2022-10-01T09:56:02.357Z,76.82
2022-10-01T09:57:02.351Z,75.89
2022-10-01T09:58:02.352Z,75.87
2022-10-01T09:59:02.349Z,76.56
2022-10-01T10:00:02.316Z,78.14
2022-10-01T10:01:02.312Z,78.64
2022-10-01T10:02:02.478Z,77.61
2022-10-01T10:03:06.825Z,77.66
2022-10-01T10:04:02.472Z,78.50
2022-10-01T10:05:02.255Z,77.32
2022-10-01T10:06:02.296Z,77.41
2022-10-01T10:07:02.247Z,75.76
2022-10-01T10:08:02.227Z,76.65
2022-10-01T10:09:02.259Z,77.88
2022-10-01T10:10:02.326Z,76.67
2022-10-01T10:11:02.224Z,76.75
2022-10-01T10:12:02.211Z,77.38
2022-10-01T10:13:02.439Z,78.70
2022-10-01T10:14:02.524Z,77.50
2022-10-01T10:15:02.175Z,76.88
2022-10-01T10:16:03.089Z,77.98
2022-10-01T10:17:02.181Z,76.85
2022-10-01T10:18:02.629Z,76.75
2022-10-01T10:19:02.179Z,77.62
2022-10-01T10:20:02.360Z,78.55
2022-10-01T10:21:02.094Z,77.48
2022-10-01T10:22:02.133Z,78.27
2022-10-01T10:23:02.144Z,77.80
2022-10-01T10:24:02.129Z,78.33
2022-10-01T10:25:04.379Z,76.26
2022-10-01T10:26:02.109Z,77.77
2022-10-01T10:27:02.128Z,78.54
2022-10-01T10:28:02.088Z,79.08
2022-10-01T10:29:02.034Z,78.62
2022-10-01T10:30:02.225Z,76.74
2022-10-01T10:31:02.260Z,77.13
2022-10-01T10:32:03.925Z,77.42
2022-10-01T10:33:02.789Z,78.82
2022-10-01T10:34:02.957Z,77.22
2022-10-01T10:35:03.424Z,77.36
2022-10-01T10:36:03.529Z,79.55
2022-10-01T10:37:02.394Z,78.31
2022-10-01T10:38:20.344Z,77.94
2022-10-01T10:39:02.329Z,78.40
2022-10-01T10:40:01.902Z,77.80
2022-10-01T10:41:01.905Z,79.88
2022-10-01T10:42:01.926Z,78.09
2022-10-01T10:43:01.858Z,78.54
2022-10-01T10:44:02.658Z,79.26
2022-10-01T10:45:01.863Z,78.51
2022-10-01T10:46:02.892Z,77.41
2022-10-01T10:47:01.810Z,77.98
2022-10-01T10:48:01.846Z,76.87
2022-10-01T10:49:01.766Z,78.56
2022-10-01T10:50:01.866Z,77.94
2022-10-01T10:51:05.058Z,78.10
2022-10-01T10:52:01.803Z,79.38
2022-10-01T10:53:01.782Z,77.09
2022-10-01T10:54:01.782Z,77.16
2022-10-01T10:55:01.760Z,78.44
2022-10-01T10:56:01.844Z,78.91
2022-10-01T10:57:01.778Z,77.43
2022-10-01T10:58:05.056Z,77.85
2022-10-01T10:59:02.851Z,78.26
2022-10-01T11:00:01.660Z,77.26
2022-10-01T11:01:01.786Z,78.17
2022-10-01T11:02:02.714Z,77.53
2022-10-01T11:03:01.642Z,78.23
2022-10-01T11:04:01.970Z,77.17
2022-10-01T11:05:01.621Z,76.33
2022-10-01T11:06:01.700Z,76.54
2022-10-01T11:07:01.619Z,77.80
2022-10-01T11:08:01.760Z,77.28
2022-10-01T11:09:02.083Z,78.29
2022-10-01T11:10:02.727Z,78.81
2022-10-01T11:11:01.599Z,77.53
2022-10-01T11:12:01.622Z,76.63
2022-10-01T11:13:02.456Z,77.22
2022-10-01T11:14:01.788Z,78.43
2022-10-01T11:15:01.617Z,77.63
2022-10-01T11:16:01.574Z,76.29
2022-10-01T11:17:01.565Z,78.38
2022-10-01T11:18:01.515Z,78.56
2022-10-01T11:19:01.455Z,76.39
2022-10-01T11:20:01.486Z,76.47
2022-10-01T11:21:01.452Z,78.35
2022-10-01T11:22:01.544Z,79.09
2022-10-01T11:23:01.501Z,78.46
2022-10-01T11:24:01.397Z,78.33
2022-10-01T11:25:01.497Z,76.77
2022-10-01T11:26:01.405Z,76.89
2022-10-01T11:27:01.585Z,77.55
2022-10-01T11:28:01.507Z,79.25
2022-10-01T11:29:01.377Z,78.59
2022-10-01T11:30:01.394Z,78.72
2022-10-01T11:31:01.966Z,77.44
2022-10-01T11:32:01.433Z,79.49
2022-10-01T11:33:01.691Z,77.61
2022-10-01T11:34:01.423Z,78.82
2022-10-01T11:35:01.333Z,77.18
2022-10-01T11:36:01.305Z,78.59
2022-10-01T11:37:01.318Z,78.76
2022-10-01T11:38:01.256Z,78.57
2022-10-01T11:39:01.964Z,76.31
2022-10-01T11:40:01.994Z,81.17
2022-10-01T11:41:01.273Z,76.65
2022-10-01T11:42:01.276Z,78.05
2022-10-01T11:43:01.316Z,77.99
2022-10-01T11:44:01.242Z,76.97
2022-10-01T11:45:01.442Z,77.58
2022-10-01T11:46:01.229Z,77.66
2022-10-01T11:47:01.192Z,78.59
2022-10-01T11:48:01.320Z,78.14
2022-10-01T11:49:01.196Z,77.23
2022-10-01T11:50:01.190Z,78.32
2022-10-01T11:51:01.154Z,78.67
2022-10-01T11:52:01.253Z,76.11
2022-10-01T11:53:01.056Z,78.91
2022-10-01T11:54:01.173Z,75.48
2022-10-01T11:55:01.089Z,76.71
2022-10-01T11:56:01.055Z,76.45
2022-10-01T11:57:01.181Z,78.35
2022-10-01T11:58:01.096Z,76.44
2022-10-01T11:59:01.028Z,76.58
2022-10-01T12:00:01.269Z,75.74
2022-10-01T12:01:01.070Z,77.54
2022-10-01T12:02:01.101Z,77.67
2022-10-01T12:03:02.011Z,78.76
2022-10-01T12:04:01.213Z,77.45
2022-10-01T12:05:01.098Z,76.44
2022-10-01T12:06:00.959Z,79.09
2022-10-01T12:07:01.209Z,77.96
2022-10-01T12:08:00.962Z,77.96
2022-10-01T12:09:00.889Z,78.35
2022-10-01T12:10:00.867Z,77.32
2022-10-01T12:11:01.440Z,77.20
2022-10-01T12:12:35.364Z,77.32
2022-10-01T12:13:00.902Z,77.01
2022-10-01T12:14:00.886Z,77.31
2022-10-01T12:15:05.729Z,77.29
2022-10-01T12:16:01.901Z,77.89
2022-10-01T12:17:00.866Z,77.58
2022-10-01T12:18:00.810Z,79.32
2022-10-01T12:19:00.771Z,78.30
2022-10-01T12:20:00.771Z,77.30
2022-10-01T12:21:00.779Z,78.84
2022-10-01T12:22:00.735Z,78.72
2022-10-01T12:23:00.738Z,80.07
2022-10-01T12:24:00.735Z,78.93
2022-10-01T12:25:00.748Z,75.45
2022-10-01T12:26:00.774Z,77.65
2022-10-01T12:27:00.782Z,78.69
2022-10-01T12:28:00.730Z,77.23
2022-10-01T12:29:01.531Z,76.91
2022-10-01T12:30:00.675Z,77.29
2022-10-01T12:31:00.678Z,78.39
2022-10-01T12:32:00.839Z,78.39
2022-10-01T12:33:01.067Z,78.45
2022-10-01T12:34:00.626Z,77.60
2022-10-01T12:35:00.660Z,77.47
2022-10-01T12:36:00.680Z,78.40
2022-10-01T12:37:00.615Z,78.04
2022-10-01T12:38:00.637Z,77.33
2022-10-01T12:39:00.621Z,76.48
2022-10-01T12:40:00.567Z,76.12
2022-10-01T12:41:00.546Z,79.12
2022-10-01T12:42:00.563Z,76.27
2022-10-01T12:43:04.058Z,76.83
2022-10-01T12:44:01.587Z,76.27
2022-10-01T12:45:00.504Z,78.33
2022-10-01T12:46:00.862Z,76.84
2022-10-01T12:47:00.496Z,76.82
2022-10-01T12:48:00.506Z,76.29
2022-10-01T12:49:00.509Z,75.74
2022-10-01T12:50:00.456Z,76.11
2022-10-01T12:51:00.456Z,77.35
2022-10-01T12:52:00.416Z,76.87
2022-10-01T12:53:00.542Z,75.47
2022-10-01T12:54:00.525Z,77.07